createdAt,value
2019-05-01T00:01:54.623Z,47.73
2019-05-01T00:04:26.226Z,47.97
2019-05-01T00:06:57.895Z,45.60
2019-05-01T00:09:24.723Z,48.60
2019-05-01T00:11:51.395Z,50.87
2019-05-01T00:14:18.151Z,47.50
2019-05-01T00:16:44.886Z,48.47
2019-05-01T00:19:11.500Z,45.13
2019-05-01T00:21:38.114Z,45.47
2019-05-01T00:24:04.866Z,50.13
2019-05-01T00:26:31.748Z,52.63
2019-05-01T00:28:58.708Z,51.10
2019-05-01T00:31:25.266Z,48.23
2019-05-01T00:33:51.855Z,50.47
2019-05-01T00:36:18.414Z,48.80
2019-05-01T00:38:45.003Z,49.77
2019-05-01T00:41:11.571Z,49.67
2019-05-01T00:43:38.180Z,52.00
2019-05-01T00:46:04.774Z,50.87
2019-05-01T00:48:31.359Z,50.60
2019-05-01T00:50:58.201Z,48.10
2019-05-01T00:53:24.823Z,49.70
2019-05-01T00:55:53.326Z,46.80
2019-05-01T00:58:38.392Z,48.73
2019-05-01T01:01:09.750Z,63.57
2019-05-01T01:03:36.958Z,63.47
2019-05-01T01:06:04.194Z,65.33
2019-05-01T01:08:30.827Z,59.57
2019-05-01T01:10:57.423Z,51.77
2019-05-01T01:13:24.031Z,52.43
2019-05-01T01:15:50.887Z,51.93
2019-05-01T01:18:17.470Z,48.60
2019-05-01T01:20:44.058Z,53.20
2019-05-01T01:23:10.826Z,52.53
2019-05-01T01:25:37.512Z,53.63
2019-05-01T01:28:04.062Z,53.43
2019-05-01T01:30:30.912Z,51.60
2019-05-01T01:32:57.514Z,52.07
2019-05-01T01:35:24.243Z,54.40
2019-05-01T01:37:50.802Z,49.93
2019-05-01T01:40:17.586Z,53.43
2019-05-01T01:42:45.651Z,53.17
2019-05-01T01:45:17.118Z,55.67
2019-05-01T01:48:02.717Z,57.43
2019-05-01T01:50:29.610Z,52.37
2019-05-01T01:52:56.739Z,56.33
2019-05-01T01:55:23.607Z,53.33
2019-05-01T01:57:50.215Z,54.90
2019-05-01T02:00:19.219Z,53.63
2019-05-01T02:02:47.778Z,52.97
2019-05-01T02:05:16.567Z,53.10
2019-05-01T02:07:43.625Z,55.13
2019-05-01T02:10:10.471Z,57.83
2019-05-01T02:12:37.558Z,54.83
2019-05-01T02:15:04.670Z,55.37
2019-05-01T02:17:50.314Z,56.37
2019-05-01T02:20:18.790Z,53.03
2019-05-01T02:22:45.406Z,53.27
2019-05-01T02:25:12.894Z,52.90
2019-05-01T02:27:41.478Z,56.90
2019-05-01T02:30:10.296Z,56.20
2019-05-01T02:32:37.351Z,53.37
2019-05-01T02:35:04.918Z,54.53
2019-05-01T02:37:32.078Z,54.70
2019-05-01T02:40:00.555Z,56.87
2019-05-01T02:42:29.335Z,50.97
2019-05-01T02:44:57.995Z,55.67
2019-05-01T02:47:26.663Z,52.93
2019-05-01T02:49:55.163Z,51.40
2019-05-01T02:52:22.238Z,55.90
2019-05-01T02:54:49.327Z,52.97
2019-05-01T02:57:18.086Z,54.57
2019-05-01T02:59:45.767Z,54.73
2019-05-01T03:02:12.875Z,54.83
2019-05-01T03:04:40.394Z,54.73
2019-05-01T03:07:07.406Z,56.77
2019-05-01T03:09:34.711Z,53.43
2019-05-01T03:12:01.996Z,57.57
2019-05-01T03:14:30.070Z,53.83
2019-05-01T03:16:59.263Z,55.57
2019-05-01T03:19:30.774Z,56.17
2019-05-01T03:22:14.970Z,53.10
2019-05-01T03:24:41.686Z,60.10
2019-05-01T03:27:08.637Z,62.37
2019-05-01T03:29:35.452Z,58.77
2019-05-01T03:32:16.632Z,57.13
2019-05-01T03:34:31.429Z,58.53
2019-05-01T03:36:58.403Z,56.20
2019-05-01T03:39:25.266Z,59.83
2019-05-01T03:41:52.090Z,63.40
2019-05-01T03:44:18.800Z,54.20
2019-05-01T03:46:45.655Z,57.53
2019-05-01T03:49:12.774Z,59.00
2019-05-01T03:51:39.948Z,59.13
2019-05-01T03:54:07.594Z,65.27
2019-05-01T03:56:34.573Z,57.20
2019-05-01T03:59:01.626Z,57.43
2019-05-01T04:01:33.025Z,55.27
2019-05-01T04:04:04.491Z,56.83
2019-05-01T04:06:31.106Z,59.07
2019-05-01T04:08:57.863Z,57.40
2019-05-01T04:11:24.816Z,67.30
2019-05-01T04:13:51.691Z,58.53
2019-05-01T04:16:19.479Z,56.90
2019-05-01T04:18:47.033Z,67.50
2019-05-01T04:21:13.755Z,85.40
2019-05-01T04:23:42.178Z,70.40
2019-05-01T04:26:09.228Z,68.00
2019-05-01T04:28:38.500Z,73.43
2019-05-01T04:31:07.447Z,75.33
2019-05-01T04:33:35.443Z,76.80
2019-05-01T04:36:04.444Z,75.30
2019-05-01T04:38:31.124Z,74.40
2019-05-01T04:40:58.543Z,76.50
2019-05-01T04:43:25.407Z,76.60
2019-05-01T04:45:52.363Z,81.77
2019-05-01T04:48:19.890Z,81.37
2019-05-01T04:50:46.718Z,88.47
2019-05-01T04:53:13.494Z,93.63
2019-05-01T04:55:40.159Z,96.50
2019-05-01T04:58:07.322Z,86.27
2019-05-01T05:00:34.474Z,87.43
2019-05-01T05:03:06.439Z,117.83
2019-05-01T05:05:33.362Z,120.03
2019-05-01T05:08:00.566Z,97.53
2019-05-01T05:10:27.258Z,101.10
2019-05-01T05:13:05.518Z,100.97
2019-05-01T05:15:49.822Z,100.67
2019-05-01T05:18:16.538Z,104.73
2019-05-01T05:20:43.286Z,109.40
2019-05-01T05:23:10.019Z,109.17
2019-05-01T05:25:37.149Z,98.93
2019-05-01T05:28:04.225Z,103.50
2019-05-01T05:30:32.470Z,115.57
2019-05-01T05:33:00.987Z,119.63
2019-05-01T05:35:28.220Z,97.80
2019-05-01T05:37:58.626Z,105.13
2019-05-01T05:40:28.862Z,121.20
2019-05-01T05:42:55.963Z,114.17
2019-05-01T05:45:22.799Z,114.00
2019-05-01T05:47:49.810Z,113.30
2019-05-01T05:50:18.338Z,124.40
2019-05-01T05:52:48.771Z,124.77
2019-05-01T05:55:26.258Z,156.00
2019-05-01T05:57:55.700Z,134.83
2019-05-01T06:00:37.703Z,135.73
2019-05-01T06:03:31.077Z,137.77
2019-05-01T06:06:02.098Z,136.03
2019-05-01T06:08:30.067Z,135.13
2019-05-01T06:11:05.710Z,134.43
2019-05-01T06:13:52.538Z,140.80
2019-05-01T06:16:40.258Z,136.17
2019-05-01T06:19:26.302Z,150.77
2019-05-01T06:22:04.959Z,153.43
2019-05-01T06:24:40.517Z,152.77
2019-05-01T06:27:08.872Z,164.70
2019-05-01T06:29:35.781Z,151.63
2019-05-01T06:34:58.452Z,152.30
2019-05-01T06:37:39.374Z,159.23
2019-05-01T06:40:06.510Z,142.70
2019-05-01T06:42:33.486Z,150.03
2019-05-01T06:45:02.415Z,142.73
2019-05-01T06:47:31.057Z,151.23
2019-05-01T06:50:06.047Z,148.00
2019-05-01T06:52:32.542Z,136.00
2019-05-01T06:54:59.254Z,142.47
2019-05-01T06:57:27.121Z,145.30
2019-05-01T06:59:54.888Z,144.17
2019-05-01T07:02:22.445Z,150.03
2019-05-01T07:04:49.567Z,202.73
2019-05-01T07:07:25.246Z,152.20
2019-05-01T07:09:49.385Z,141.70
2019-05-01T07:12:18.595Z,154.33
2019-05-01T07:14:47.139Z,150.33
2019-05-01T07:17:14.842Z,143.77
2019-05-01T07:19:55.707Z,156.53
2019-05-01T07:22:23.307Z,153.27
2019-05-01T07:24:50.334Z,142.03
2019-05-01T07:27:18.875Z,149.13
2019-05-01T07:30:20.759Z,153.87
2019-05-01T07:32:47.710Z,141.57
2019-05-01T07:35:14.519Z,130.60
2019-05-01T07:37:41.235Z,138.10
2019-05-01T07:40:08.370Z,131.23
2019-05-01T07:42:37.093Z,130.47
2019-05-01T07:45:23.146Z,131.63
2019-05-01T07:47:51.887Z,124.57
2019-05-01T07:50:18.742Z,122.07
2019-05-01T07:52:47.769Z,117.87
2019-05-01T07:55:18.128Z,113.93
2019-05-01T07:57:44.560Z,123.00
2019-05-01T08:00:13.689Z,133.47
2019-05-01T08:02:40.407Z,146.07
2019-05-01T08:05:10.071Z,142.87
2019-05-01T08:07:36.186Z,135.57
2019-05-01T08:10:06.247Z,131.23
2019-05-01T08:12:33.095Z,130.63
2019-05-01T08:14:59.772Z,121.50
2019-05-01T08:17:28.291Z,122.53
2019-05-01T08:19:57.043Z,116.83
2019-05-01T08:22:25.994Z,117.33
2019-05-01T08:24:53.843Z,113.87
2019-05-01T08:27:28.948Z,109.40
2019-05-01T08:30:06.150Z,106.37
2019-05-01T08:32:40.953Z,103.73
2019-05-01T08:35:09.865Z,111.97
2019-05-01T08:37:36.703Z,111.53
2019-05-01T08:40:06.629Z,119.10
2019-05-01T08:42:33.257Z,111.23
2019-05-01T08:45:05.066Z,119.07
2019-05-01T08:47:38.246Z,115.20
2019-05-01T08:50:07.457Z,126.53
2019-05-01T08:52:34.158Z,120.43
2019-05-01T08:55:04.308Z,117.00
2019-05-01T08:57:34.128Z,111.27
2019-05-01T09:00:00.323Z,122.20
2019-05-01T09:02:27.223Z,113.70
2019-05-01T09:05:01.971Z,109.47
2019-05-01T09:07:24.103Z,127.13
2019-05-01T09:09:50.999Z,114.43
2019-05-01T09:12:17.811Z,121.30
2019-05-01T09:14:44.622Z,114.53
2019-05-01T09:17:11.427Z,119.27
2019-05-01T09:19:38.061Z,114.97
2019-05-01T09:22:04.830Z,122.27
2019-05-01T09:24:31.449Z,124.97
2019-05-01T09:27:18.668Z,124.07
2019-05-01T09:29:51.593Z,118.93
2019-05-01T09:32:18.634Z,115.50
2019-05-01T09:34:44.539Z,120.17
2019-05-01T09:37:11.140Z,127.47
2019-05-01T09:39:38.199Z,120.43
2019-05-01T09:42:06.665Z,143.17
2019-05-01T09:44:33.483Z,328.87
2019-05-01T09:47:00.119Z,160.60
2019-05-01T09:49:26.869Z,129.03
2019-05-01T09:52:04.194Z,125.10
2019-05-01T09:54:35.886Z,123.77
2019-05-01T09:57:02.788Z,132.77
2019-05-01T09:59:29.583Z,138.57
2019-05-01T10:01:56.730Z,141.10
2019-05-01T10:04:25.321Z,131.50
2019-05-01T10:06:53.862Z,131.63
2019-05-01T10:09:20.738Z,139.87
2019-05-01T10:11:47.495Z,133.63
2019-05-01T10:14:14.150Z,131.57
2019-05-01T10:16:40.766Z,140.80
2019-05-01T10:19:07.718Z,141.80
2019-05-01T10:21:34.384Z,129.10
2019-05-01T10:24:01.014Z,130.10
2019-05-01T10:26:29.410Z,128.23
2019-05-01T10:29:13.157Z,124.53
2019-05-01T10:31:58.584Z,119.43
2019-05-01T10:34:38.694Z,131.10
2019-05-01T10:37:04.838Z,129.17
2019-05-01T10:39:31.458Z,119.57
2019-05-01T10:41:58.146Z,107.93
2019-05-01T10:44:24.931Z,114.23
2019-05-01T10:46:51.611Z,117.77
2019-05-01T10:49:18.231Z,117.90
2019-05-01T10:51:44.884Z,115.47
2019-05-01T10:54:11.519Z,105.27
2019-05-01T10:56:38.166Z,109.43
2019-05-01T10:59:04.783Z,100.83
2019-05-01T11:01:39.335Z,105.63
2019-05-01T11:04:06.304Z,109.53
2019-05-01T11:06:33.267Z,101.63
2019-05-01T11:08:59.987Z,103.27
2019-05-01T11:11:26.785Z,111.07
2019-05-01T11:13:53.496Z,114.73
2019-05-01T11:16:20.078Z,105.40
2019-05-01T11:18:46.906Z,109.53
2019-05-01T11:21:13.686Z,107.87
2019-05-01T11:23:40.709Z,106.17
2019-05-01T11:26:07.374Z,98.33
2019-05-01T11:28:34.090Z,102.63
2019-05-01T11:31:00.775Z,106.03
2019-05-01T11:33:41.085Z,104.10
2019-05-01T11:36:26.502Z,105.73
2019-05-01T11:38:57.981Z,102.30
2019-05-01T11:41:26.486Z,101.17
2019-05-01T11:43:53.242Z,102.83
2019-05-01T11:46:19.843Z,104.53
2019-05-01T11:48:46.459Z,132.47
2019-05-01T11:51:13.034Z,164.80
2019-05-01T11:53:39.723Z,97.30
2019-05-01T11:56:06.340Z,101.17
2019-05-01T11:58:32.942Z,104.17
2019-05-01T12:01:01.222Z,97.47
2019-05-01T12:03:27.859Z,98.90
2019-05-01T12:05:54.875Z,98.30
2019-05-01T12:08:21.657Z,97.90
2019-05-01T12:10:48.386Z,101.20
2019-05-01T12:13:15.053Z,97.07
2019-05-01T12:15:43.574Z,93.53
2019-05-01T12:18:10.217Z,97.17
2019-05-01T12:20:36.934Z,98.97
2019-05-01T12:23:03.875Z,105.23
2019-05-01T12:25:30.490Z,97.13
2019-05-01T12:27:57.143Z,96.77
2019-05-01T12:30:23.776Z,104.90
2019-05-01T12:32:51.073Z,94.13
2019-05-01T12:35:17.867Z,96.40
2019-05-01T12:37:44.795Z,91.83
2019-05-01T12:40:13.572Z,92.07
2019-05-01T12:42:40.156Z,88.47
2019-05-01T12:45:07.951Z,88.07
2019-05-01T12:47:48.963Z,91.47
2019-05-01T12:50:15.899Z,84.77
2019-05-01T12:52:47.053Z,90.03
2019-05-01T12:55:32.952Z,85.87
2019-05-01T12:57:59.859Z,92.30
2019-05-01T13:00:40.798Z,98.80
2019-05-01T13:03:07.411Z,95.97
2019-05-01T13:05:34.085Z,93.67
2019-05-01T13:08:01.007Z,101.10
2019-05-01T13:10:27.963Z,96.30
2019-05-01T13:12:54.574Z,103.23
2019-05-01T13:15:21.222Z,98.17
2019-05-01T13:17:47.939Z,95.83
2019-05-01T13:20:14.571Z,100.07
2019-05-01T13:22:41.186Z,103.20
2019-05-01T13:25:08.214Z,103.63
2019-05-01T13:27:36.728Z,102.83
2019-05-01T13:30:23.822Z,100.13
2019-05-01T13:32:52.339Z,102.20
2019-05-01T13:35:18.982Z,93.13
2019-05-01T13:37:45.721Z,94.10
2019-05-01T13:40:13.215Z,92.40
2019-05-01T13:42:40.118Z,89.27
2019-05-01T13:45:07.247Z,88.80
2019-05-01T13:47:33.990Z,81.17
2019-05-01T13:50:03.562Z,83.10
2019-05-01T13:52:30.299Z,80.70
2019-05-01T13:54:57.169Z,76.67
2019-05-01T13:57:24.031Z,74.77
2019-05-01T13:59:50.863Z,70.27
2019-05-01T14:02:17.827Z,71.67
2019-05-01T14:04:44.667Z,68.17
2019-05-01T14:07:16.786Z,66.97
2019-05-01T14:09:40.065Z,68.23
2019-05-01T14:12:07.052Z,68.37
2019-05-01T14:14:33.833Z,66.37
2019-05-01T14:17:00.713Z,62.77
2019-05-01T14:19:27.745Z,63.27
2019-05-01T14:21:56.277Z,58.65
2019-05-01T14:24:30.394Z,66.25
2019-05-01T14:26:56.974Z,60.43
2019-05-01T14:29:23.650Z,61.33
2019-05-01T14:31:50.330Z,60.27
2019-05-01T14:34:16.954Z,62.77
2019-05-01T14:36:44.584Z,62.83
2019-05-01T14:39:11.195Z,52.90
2019-05-01T14:41:37.831Z,55.17
2019-05-01T14:44:04.598Z,54.00
2019-05-01T14:46:31.478Z,51.83
2019-05-01T14:48:58.249Z,52.67
2019-05-01T14:51:25.118Z,52.57
2019-05-01T14:53:52.015Z,50.93
2019-05-01T14:56:18.882Z,47.80
2019-05-01T14:58:45.875Z,45.57
2019-05-01T15:01:12.606Z,44.70
2019-05-01T15:03:39.237Z,43.63
2019-05-01T15:06:06.083Z,45.13
2019-05-01T15:08:32.743Z,44.03
2019-05-01T15:10:59.465Z,43.37
2019-05-01T15:13:37.303Z,41.10
2019-05-01T15:16:15.318Z,37.90
2019-05-01T15:18:43.823Z,38.02
2019-05-01T15:21:10.687Z,36.20
2019-05-01T15:23:37.649Z,35.52
2019-05-01T15:26:04.510Z,35.50
2019-05-01T15:28:31.151Z,36.00
2019-05-01T15:30:57.754Z,35.73
2019-05-01T15:33:24.410Z,34.87
2019-05-01T15:35:51.126Z,33.00
2019-05-01T15:38:17.770Z,37.40
2019-05-01T15:40:52.186Z,38.27
2019-05-01T15:43:20.726Z,36.00
2019-05-01T15:45:47.306Z,34.87
2019-05-01T15:48:13.945Z,36.67
2019-05-01T15:50:42.371Z,35.50
2019-05-01T15:53:09.078Z,35.47
2019-05-01T15:55:35.721Z,34.10
2019-05-01T15:58:02.480Z,33.63
2019-05-01T16:00:29.251Z,35.10
2019-05-01T16:02:55.918Z,35.93
2019-05-01T16:05:22.804Z,34.40
2019-05-01T16:07:49.644Z,34.33
2019-05-01T16:10:18.651Z,32.47
2019-05-01T16:12:56.007Z,30.50
2019-05-01T16:15:26.315Z,33.53
2019-05-01T16:17:53.072Z,34.03
2019-05-01T16:20:19.795Z,34.40
2019-05-01T16:22:46.475Z,32.43
2019-05-01T16:25:13.454Z,32.67
2019-05-01T16:27:40.455Z,35.23
2019-05-01T16:30:08.170Z,34.80
2019-05-01T16:32:34.743Z,44.13
2019-05-01T16:35:01.615Z,38.03
2019-05-01T16:37:28.206Z,34.23
2019-05-01T16:39:56.729Z,34.13
2019-05-01T16:42:24.644Z,33.87
2019-05-01T16:44:51.310Z,34.93
2019-05-01T16:47:17.891Z,36.23
2019-05-01T16:49:44.710Z,37.33
2019-05-01T16:52:11.449Z,37.77
2019-05-01T16:54:38.187Z,34.77
2019-05-01T16:57:05.967Z,36.37
2019-05-01T16:59:33.177Z,33.80
2019-05-01T17:02:01.843Z,36.67
2019-05-01T17:04:33.067Z,32.87
2019-05-01T17:07:10.642Z,36.53
2019-05-01T17:09:55.982Z,35.10
2019-05-01T17:12:24.528Z,36.07
2019-05-01T17:14:51.224Z,35.97
2019-05-01T17:17:19.434Z,37.13
2019-05-01T17:19:46.014Z,37.03
2019-05-01T17:22:14.246Z,38.77
2019-05-01T17:24:42.255Z,38.03
2019-05-01T17:27:09.170Z,37.83
2019-05-01T17:29:35.994Z,39.27
2019-05-01T17:32:22.504Z,37.30
2019-05-01T17:34:49.371Z,50.17
2019-05-01T17:37:16.010Z,49.83
2019-05-01T17:39:42.634Z,39.90
2019-05-01T17:42:09.510Z,38.13
2019-05-01T17:44:36.121Z,45.83
2019-05-01T17:47:03.054Z,41.50
2019-05-01T17:49:29.895Z,42.20
2019-05-01T17:51:56.670Z,47.37
2019-05-01T17:54:23.355Z,42.07
2019-05-01T17:56:53.710Z,45.17
2019-05-01T17:59:18.442Z,42.67
2019-05-01T18:02:09.956Z,44.33
2019-05-01T18:04:52.519Z,43.07
2019-05-01T18:07:19.203Z,45.43
2019-05-01T18:09:45.846Z,49.30
2019-05-01T18:12:12.586Z,47.83
2019-05-01T18:14:39.299Z,48.97
2019-05-01T18:17:05.930Z,50.23
2019-05-01T18:19:32.871Z,44.40
2019-05-01T18:22:08.543Z,45.97
2019-05-01T18:24:40.039Z,49.33
2019-05-01T18:27:14.693Z,48.43
2019-05-01T18:29:47.795Z,47.03
2019-05-01T18:32:16.446Z,48.97
2019-05-01T18:34:43.098Z,47.83
2019-05-01T18:37:11.863Z,48.73
2019-05-01T18:39:42.878Z,50.67
2019-05-01T18:42:11.499Z,51.93
2019-05-01T18:44:42.613Z,50.73
2019-05-01T18:47:06.670Z,47.27
2019-05-01T18:49:33.551Z,51.20
2019-05-01T18:52:00.126Z,49.73
2019-05-01T18:54:30.341Z,50.50
2019-05-01T18:56:55.523Z,50.87
2019-05-01T18:59:22.174Z,53.10
2019-05-01T19:01:49.766Z,53.07
2019-05-01T19:04:18.567Z,48.93
2019-05-01T19:06:45.339Z,53.20
2019-05-01T19:09:14.954Z,51.73
2019-05-01T19:11:40.653Z,51.67
2019-05-01T19:14:08.149Z,56.17
2019-05-01T19:16:34.983Z,50.30
2019-05-01T19:19:03.931Z,53.83
2019-05-01T19:21:30.837Z,55.20
2019-05-01T19:24:00.605Z,53.03
2019-05-01T19:26:26.295Z,54.70
2019-05-01T19:28:52.934Z,53.00
2019-05-01T19:31:21.338Z,51.80
2019-05-01T19:33:48.113Z,55.40
2019-05-01T19:36:14.766Z,54.27
2019-05-01T19:39:02.323Z,54.77
2019-05-01T19:41:28.964Z,56.77
2019-05-01T19:43:55.683Z,58.80
2019-05-01T19:46:22.542Z,59.77
2019-05-01T19:48:50.678Z,59.10
2019-05-01T19:51:19.169Z,77.70
2019-05-01T19:53:51.525Z,59.73
2019-05-01T19:56:16.700Z,56.30
2019-05-01T19:58:43.702Z,54.27
2019-05-01T20:01:10.526Z,55.47
2019-05-01T20:03:38.591Z,53.90
2019-05-01T20:06:07.842Z,55.30
2019-05-01T20:08:34.178Z,59.57
2019-05-01T20:11:00.847Z,57.90
2019-05-01T20:13:27.602Z,59.97
2019-05-01T20:15:54.344Z,61.83
2019-05-01T20:18:20.974Z,58.83
2019-05-01T20:20:47.695Z,58.50
2019-05-01T20:23:14.615Z,59.07
2019-05-01T20:25:41.534Z,59.23
2019-05-01T20:28:08.322Z,58.23
2019-05-01T20:30:35.422Z,60.00
2019-05-01T20:33:02.441Z,62.60
2019-05-01T20:35:34.130Z,59.47
2019-05-01T20:37:59.875Z,57.13
2019-05-01T20:40:26.869Z,56.67
2019-05-01T20:42:53.688Z,59.13
2019-05-01T20:45:20.546Z,60.43
2019-05-01T20:47:48.259Z,57.17
2019-05-01T20:50:15.318Z,56.03
2019-05-01T20:52:42.176Z,60.03
2019-05-01T20:55:09.348Z,60.13
2019-05-01T20:57:38.182Z,60.03
2019-05-01T21:00:05.259Z,60.20
2019-05-01T21:02:31.983Z,60.23
2019-05-01T21:05:00.723Z,60.20
2019-05-01T21:07:29.740Z,60.10
2019-05-01T21:09:59.251Z,58.67
2019-05-01T21:12:26.512Z,61.33
2019-05-01T21:14:53.558Z,62.60
2019-05-01T21:17:20.447Z,60.57
2019-05-01T21:19:47.424Z,62.03
2019-05-01T21:22:14.404Z,63.07
2019-05-01T21:24:41.394Z,60.73
2019-05-01T21:27:08.332Z,61.37
2019-05-01T21:29:35.257Z,63.30
2019-05-01T21:32:03.518Z,60.60
2019-05-01T21:34:30.369Z,65.73
2019-05-01T21:36:56.999Z,66.67
2019-05-01T21:39:25.039Z,68.93
2019-05-01T21:41:53.286Z,61.77
2019-05-01T21:44:20.383Z,62.37
2019-05-01T21:46:47.279Z,63.87
2019-05-01T21:49:14.198Z,59.07
2019-05-01T21:51:42.318Z,65.40
2019-05-01T21:54:09.581Z,65.87
2019-05-01T21:56:36.858Z,62.80
2019-05-01T21:59:08.393Z,62.53
2019-05-01T22:01:34.812Z,62.97
2019-05-01T22:04:02.287Z,63.37
2019-05-01T22:06:28.844Z,65.73
2019-05-01T22:08:55.438Z,69.53
2019-05-01T22:11:22.029Z,65.93
2019-05-01T22:13:48.621Z,71.10
2019-05-01T22:16:18.439Z,64.47
2019-05-01T22:18:50.451Z,66.17
2019-05-01T22:21:21.721Z,68.63
2019-05-01T22:24:02.239Z,65.07
2019-05-01T22:26:30.726Z,68.33
2019-05-01T22:28:59.542Z,64.77
2019-05-01T22:31:31.289Z,68.30
2019-05-01T22:34:16.454Z,68.10
2019-05-01T22:36:43.338Z,68.73
2019-05-01T22:39:11.098Z,73.60
2019-05-01T22:41:37.664Z,72.73
2019-05-01T22:44:04.702Z,73.47
2019-05-01T22:46:33.720Z,75.10
2019-05-01T22:48:59.874Z,74.37
2019-05-01T22:51:26.455Z,77.00
2019-05-01T22:53:55.679Z,75.20
2019-05-01T22:56:22.358Z,76.07
2019-05-01T22:58:49.144Z,80.90
2019-05-01T23:01:18.102Z,73.10
2019-05-01T23:03:49.562Z,75.73
2019-05-01T23:06:16.327Z,79.10
2019-05-01T23:08:42.936Z,70.90
2019-05-01T23:11:19.815Z,69.30
2019-05-01T23:13:39.178Z,69.27
2019-05-01T23:16:06.654Z,69.80
2019-05-01T23:18:33.214Z,71.30
2019-05-01T23:20:59.899Z,72.67
2019-05-01T23:23:26.463Z,73.63
2019-05-01T23:25:53.216Z,73.40
2019-05-01T23:28:19.813Z,74.73
2019-05-01T23:30:46.446Z,79.83
2019-05-01T23:33:13.012Z,78.60
2019-05-01T23:35:39.664Z,82.63
2019-05-01T23:38:06.346Z,89.00
2019-05-01T23:40:33.015Z,85.67
2019-05-01T23:42:59.576Z,80.77
2019-05-01T23:45:26.169Z,85.70
2019-05-01T23:47:52.834Z,87.27
2019-05-01T23:50:19.431Z,92.90
2019-05-01T23:52:46.215Z,89.03
2019-05-01T23:55:12.893Z,90.07
2019-05-01T23:57:39.470Z,99.23
